Time;durP1;ratioP1;P1;durP2;ratioP2;P2;SDS_P1;SDS_P2;PMS_P1;PMS_P2;Temp;Humidity;BMP_temperature;BMP_pressure;BME280_temperature;BME280_humidity;BME280_pressure;Samples;Min_cycle;Max_cycle;Signal;HPM_P1;HPM_P2
2022/01/06 00:00:09;;;;;;;55.90;34.92;;;20.40;90.10;;;;;;1905950;72;21622;-81
2022/01/06 00:02:42;;;;;;;52.93;34.25;;;20.40;90.00;;;;;;1907769;73;21182;-80
2022/01/06 00:05:13;;;;;;;63.65;36.10;;;20.50;89.90;;;;;;1920325;73;21127;-80
2022/01/06 00:07:44;;;;;;;56.08;36.90;;;20.50;89.90;;;;;;1917093;73;21096;-81
2022/01/06 00:10:16;;;;;;;53.02;35.98;;;20.50;90.00;;;;;;1916389;73;21654;-82
2022/01/06 00:13:04;;;;;;;69.27;42.13;;;20.40;90.10;;;;;;1942044;73;21441;-81
2022/01/06 00:23:19;;;;;;;63.50;43.40;;;20.50;90.60;;;;;;1896183;75;21199;-81
2022/01/06 00:25:27;;;;;;;68.30;43.13;;;20.50;90.80;;;;;;1905065;72;22528;-81
2022/01/06 00:27:58;;;;;;;74.22;45.10;;;20.60;90.90;;;;;;1908334;73;21091;-82
2022/01/06 00:30:29;;;;;;;78.07;45.38;;;20.60;90.90;;;;;;1918447;73;21212;-81
2022/01/06 00:32:59;;;;;;;70.83;48.68;;;20.60;90.80;;;;;;1917443;73;21236;-81
2022/01/06 00:35:30;;;;;;;70.20;47.13;;;20.70;90.80;;;;;;1953355;73;21047;-81
2022/01/06 00:38:01;;;;;;;65.25;44.50;;;20.80;90.80;;;;;;1914095;73;21169;-83
2022/01/06 00:40:32;;;;;;;66.92;44.08;;;20.80;90.70;;;;;;1908126;74;21263;-81
2022/01/06 00:43:05;;;;;;;63.50;40.10;;;20.90;90.60;;;;;;1923310;73;21064;-81
2022/01/06 00:45:36;;;;;;;57.95;37.40;;;21.00;90.50;;;;;;1920122;70;21131;-82
2022/01/06 00:48:10;;;;;;;51.63;36.15;;;21.00;90.00;;;;;;1926577;73;21108;-81
2022/01/06 00:50:43;;;;;;;55.88;36.20;;;21.10;89.40;;;;;;1908794;73;21214;-82
2022/01/06 00:53:14;;;;;;;56.98;35.55;;;21.10;88.60;;;;;;1921204;73;21080;-82
2022/01/06 00:55:45;;;;;;;50.23;33.65;;;21.30;88.30;;;;;;1925430;72;21150;-82
2022/01/06 00:58:15;;;;;;;53.63;34.33;;;21.30;87.60;;;;;;1859521;74;21248;-82
2022/01/06 01:00:46;;;;;;;44.27;32.33;;;21.40;87.20;;;;;;1929008;73;21215;-84
2022/01/06 01:03:20;;;;;;;49.10;32.10;;;21.50;86.90;;;;;;1919403;73;21615;-81
2022/01/06 01:05:53;;;;;;;42.17;28.30;;;21.60;86.70;;;;;;1897712;74;21233;-82
2022/01/06 01:08:26;;;;;;;44.73;28.57;;;21.70;86.80;;;;;;1924284;73;21143;-81
2022/01/06 01:10:57;;;;;;;40.20;27.30;;;21.80;86.50;;;;;;1912988;73;21626;-82
2022/01/06 01:13:30;;;;;;;21.45;15.50;;;21.90;86.40;;;;;;1930204;72;21154;-83
2022/01/06 01:16:10;;;;;;;21.20;16.12;;;22.10;87.30;;;;;;1927282;73;21227;-86
2022/01/06 01:18:34;;;;;;;28.87;17.98;;;22.20;86.60;;;;;;1920520;73;21180;-81
2022/01/06 01:21:05;;;;;;;28.65;17.75;;;22.30;86.50;;;;;;1924943;73;21142;-86
2022/01/06 01:23:35;;;;;;;21.55;13.38;;;22.40;86.00;;;;;;1913974;73;21276;-86
2022/01/06 01:26:06;;;;;;;20.72;13.43;;;22.50;85.80;;;;;;1920572;73;21111;-87
2022/01/06 01:28:43;;;;;;;22.50;14.33;;;22.50;85.40;;;;;;1911781;73;21594;-87
2022/01/06 01:31:24;;;;;;;23.32;15.15;;;22.60;85.10;;;;;;1928475;72;21803;-85
2022/01/06 01:33:43;;;;;;;22.15;14.25;;;22.70;84.90;;;;;;1915322;72;21200;-86
2022/01/06 01:36:14;;;;;;;21.73;14.45;;;22.70;84.80;;;;;;1920807;73;21135;-87
2022/01/06 01:38:46;;;;;;;22.22;13.83;;;22.80;84.60;;;;;;1907640;72;21198;-90
2022/01/06 01:41:17;;;;;;;21.27;13.60;;;22.90;84.30;;;;;;1921837;73;21200;-87
2022/01/06 01:43:48;;;;;;;19.02;12.58;;;22.90;84.10;;;;;;1940980;72;21793;-87
2022/01/06 01:46:28;;;;;;;20.65;13.32;;;23.00;83.70;;;;;;1933186;73;21131;-87
2022/01/06 01:49:15;;;;;;;22.93;14.38;;;23.00;83.60;;;;;;1932545;73;21653;-86
2022/01/06 01:51:28;;;;;;;23.83;15.65;;;23.10;83.30;;;;;;1926412;73;21279;-86
2022/01/06 01:53:58;;;;;;;22.30;15.63;;;23.10;83.20;;;;;;1923331;73;21096;-86
2022/01/06 01:56:30;;;;;;;24.95;17.55;;;23.10;83.00;;;;;;1919239;73;21109;-86
2022/01/06 01:59:00;;;;;;;29.20;18.10;;;23.20;83.00;;;;;;1922988;73;21188;-85
2022/01/06 02:01:31;;;;;;;30.80;18.35;;;23.20;82.80;;;;;;1946595;73;21646;-84
2022/01/06 02:04:03;;;;;;;31.97;18.75;;;23.30;82.80;;;;;;1917688;73;21138;-85
2022/01/06 02:06:33;;;;;;;29.10;19.20;;;23.30;82.40;;;;;;1920800;73;21225;-84
2022/01/06 02:09:04;;;;;;;30.70;18.30;;;23.40;82.20;;;;;;1908356;73;21143;-87
2022/01/06 02:11:35;;;;;;;26.23;17.70;;;23.50;82.10;;;;;;1922257;73;21128;-86
2022/01/06 02:14:06;;;;;;;27.22;17.62;;;23.60;81.70;;;;;;1922429;73;21575;-87
2022/01/06 02:16:38;;;;;;;25.20;17.55;;;23.60;81.60;;;;;;1913485;73;21099;-87
2022/01/06 02:19:08;;;;;;;26.93;16.37;;;23.70;81.20;;;;;;1936632;72;21134;-88
2022/01/06 02:21:41;;;;;;;25.15;16.20;;;23.70;80.90;;;;;;1924298;73;21542;-86
2022/01/06 02:24:12;;;;;;;25.92;17.35;;;23.80;80.70;;;;;;1924748;73;21183;-85
2022/01/06 02:26:43;;;;;;;27.05;17.35;;;23.80;80.70;;;;;;1929572;73;21735;-85
2022/01/06 02:29:14;;;;;;;22.62;15.63;;;23.90;80.60;;;;;;1926494;73;21057;-83
2022/01/06 02:31:47;;;;;;;21.97;15.70;;;23.90;80.60;;;;;;1945207;73;21155;-86
2022/01/06 02:34:17;;;;;;;24.25;15.45;;;24.00;80.40;;;;;;1923951;73;21182;-86
2022/01/06 02:36:48;;;;;;;22.15;15.28;;;24.00;80.30;;;;;;1918426;74;21257;-83
2022/01/06 02:39:19;;;;;;;19.85;14.73;;;24.00;80.20;;;;;;1912890;73;21241;-83
2022/01/06 02:41:50;;;;;;;27.55;16.32;;;24.10;80.10;;;;;;1882208;74;21189;-83
2022/01/06 02:44:24;;;;;;;24.10;16.67;;;24.10;80.10;;;;;;1923271;73;21092;-84
2022/01/06 02:46:55;;;;;;;27.87;17.32;;;24.20;80.00;;;;;;1931359;73;21107;-84
2022/01/06 02:49:25;;;;;;;21.82;16.07;;;24.20;79.90;;;;;;1910544;73;21068;-85
2022/01/06 02:51:56;;;;;;;22.15;15.80;;;24.20;79.80;;;;;;1926537;73;21594;-84
2022/01/06 02:54:28;;;;;;;24.85;16.57;;;24.40;79.60;;;;;;1935144;73;21611;-85
2022/01/06 02:56:58;;;;;;;30.57;15.98;;;24.40;79.40;;;;;;1934818;73;21136;-84
2022/01/06 02:59:29;;;;;;;22.45;16.52;;;24.40;79.20;;;;;;1910900;74;21123;-85
2022/01/06 03:02:00;;;;;;;23.10;16.70;;;24.40;79.30;;;;;;1915812;73;21182;-84
2022/01/06 03:04:31;;;;;;;23.12;16.02;;;24.50;78.60;;;;;;1922204;74;21135;-84
2022/01/06 03:07:03;;;;;;;24.23;16.02;;;24.50;78.90;;;;;;1907923;73;21704;-86
2022/01/06 03:09:42;;;;;;;23.35;16.90;;;24.60;78.80;;;;;;1934246;73;21603;-84
2022/01/06 03:12:17;;;;;;;24.70;17.73;;;24.60;78.60;;;;;;1911093;73;21119;-85
2022/01/06 03:14:41;;;;;;;23.65;16.20;;;24.70;78.70;;;;;;1905717;74;22008;-83
2022/01/06 03:17:12;;;;;;;23.70;16.55;;;24.80;78.50;;;;;;1901140;73;21173;-84
2022/01/06 03:19:43;;;;;;;25.15;16.60;;;24.80;78.20;;;;;;1902649;73;21285;-85
2022/01/06 03:22:14;;;;;;;28.45;18.40;;;24.90;77.90;;;;;;1907692;74;21118;-84
2022/01/06 03:24:45;;;;;;;24.70;16.32;;;25.00;77.70;;;;;;1917362;73;21328;-85
2022/01/06 03:27:16;;;;;;;24.80;17.65;;;25.00;77.40;;;;;;1941209;73;21126;-85
2022/01/06 03:29:49;;;;;;;21.30;16.27;;;25.10;77.30;;;;;;1933188;73;21114;-85
2022/01/06 03:32:20;;;;;;;25.35;15.93;;;25.20;77.10;;;;;;1913382;73;21067;-85
2022/01/06 03:34:51;;;;;;;20.85;14.50;;;25.30;76.80;;;;;;1908145;73;21152;-85
2022/01/06 03:37:22;;;;;;;21.48;14.58;;;25.30;76.30;;;;;;1906855;74;21700;-84
2022/01/06 03:40:04;;;;;;;25.23;16.35;;;25.40;76.30;;;;;;1921384;72;21122;-85
2022/01/06 03:42:35;;;;;;;25.62;17.95;;;25.50;76.30;;;;;;1918419;73;21566;-87
2022/01/06 03:45:08;;;;;;;24.85;14.65;;;25.50;76.20;;;;;;1894161;73;21744;-85
2022/01/06 03:47:39;;;;;;;21.27;14.40;;;25.70;76.10;;;;;;1895545;74;21138;-87
2022/01/06 03:50:12;;;;;;;21.23;12.75;;;25.80;75.90;;;;;;1899048;73;21233;-88
2022/01/06 03:52:42;;;;;;;20.52;12.25;;;25.90;75.20;;;;;;1920156;73;21465;-90
2022/01/06 03:55:16;;;;;;;24.35;14.28;;;26.00;75.40;;;;;;1932687;73;21198;-88
2022/01/06 03:57:48;;;;;;;19.50;12.60;;;26.10;74.80;;;;;;1899410;74;21188;-90
2022/01/06 04:00:22;;;;;;;18.23;12.90;;;26.20;74.30;;;;;;1923262;73;21139;-88
2022/01/06 04:02:53;;;;;;;20.17;13.32;;;26.30;73.50;;;;;;1857581;75;21230;-89
2022/01/06 04:05:23;;;;;;;18.20;13.10;;;26.40;72.70;;;;;;1923116;73;21130;-90
2022/01/06 04:07:54;;;;;;;20.75;12.45;;;26.60;72.90;;;;;;1916678;73;21113;-89
2022/01/06 04:10:25;;;;;;;20.05;13.13;;;26.70;72.00;;;;;;1907360;73;23032;-70
2022/01/06 04:12:56;;;;;;;20.15;12.93;;;26.80;71.30;;;;;;1931717;73;21184;-70
2022/01/06 04:15:26;;;;;;;19.60;12.75;;;26.90;70.90;;;;;;1919604;74;21437;-71
2022/01/06 04:17:57;;;;;;;18.60;12.90;;;27.00;70.70;;;;;;1927487;73;21087;-71
2022/01/06 04:20:28;;;;;;;20.27;13.25;;;27.10;70.30;;;;;;1883015;75;21181;-71
2022/01/06 04:22:59;;;;;;;18.98;13.10;;;27.10;70.30;;;;;;1878949;75;21206;-70
2022/01/06 04:25:30;;;;;;;18.62;12.28;;;27.20;70.30;;;;;;1932645;73;21127;-71
2022/01/06 04:28:00;;;;;;;20.20;13.30;;;27.30;70.00;;;;;;1927588;73;21544;-71
2022/01/06 04:30:31;;;;;;;25.45;14.87;;;27.40;70.00;;;;;;1917504;73;21169;-70
2022/01/06 04:33:01;;;;;;;18.90;13.85;;;27.40;69.30;;;;;;1910162;73;21244;-70
2022/01/06 04:35:33;;;;;;;24.52;15.68;;;27.40;69.60;;;;;;1940670;73;21736;-70
2022/01/06 04:38:04;;;;;;;22.13;14.13;;;27.50;68.30;;;;;;1909206;74;21188;-71
2022/01/06 04:40:34;;;;;;;19.12;14.15;;;27.60;67.60;;;;;;1890024;75;21144;-70
2022/01/06 04:43:07;;;;;;;22.90;14.95;;;27.60;67.60;;;;;;1901121;74;21093;-71
2022/01/06 04:45:38;;;;;;;21.33;14.00;;;27.70;66.80;;;;;;1906071;74;21172;-69
2022/01/06 04:48:09;;;;;;;27.27;14.58;;;27.70;66.30;;;;;;1926503;73;21628;-71
2022/01/06 04:50:40;;;;;;;22.20;15.90;;;27.80;64.10;;;;;;1909542;74;21079;-71
2022/01/06 04:53:11;;;;;;;19.85;14.38;;;27.90;65.70;;;;;;1928505;73;21216;-70
2022/01/06 04:55:42;;;;;;;18.55;13.43;;;27.90;64.40;;;;;;1878783;75;21602;-71
2022/01/06 04:58:13;;;;;;;20.75;14.00;;;28.10;64.00;;;;;;1905144;73;21153;-71
2022/01/06 05:00:44;;;;;;;15.93;11.40;;;28.20;64.10;;;;;;1902131;74;21153;-71
2022/01/06 05:03:14;;;;;;;15.78;10.35;;;28.30;63.80;;;;;;1915378;73;21147;-71
2022/01/06 05:05:46;;;;;;;20.48;11.78;;;28.40;61.50;;;;;;1928172;73;21292;-70
2022/01/06 05:08:17;;;;;;;16.23;11.28;;;28.60;61.20;;;;;;1919224;73;21232;-71
2022/01/06 05:10:49;;;;;;;13.98;9.55;;;28.70;59.90;;;;;;1909767;73;21203;-72
2022/01/06 05:13:20;;;;;;;15.53;10.45;;;28.90;60.20;;;;;;1917660;74;21215;-71
2022/01/06 05:15:51;;;;;;;14.75;9.53;;;29.00;60.80;;;;;;1904363;74;21241;-71
2022/01/06 05:18:21;;;;;;;13.85;8.90;;;29.00;59.80;;;;;;1921053;73;21145;-71
2022/01/06 05:20:52;;;;;;;14.98;10.00;;;29.00;59.10;;;;;;1922299;72;21200;-71
2022/01/06 05:23:23;;;;;;;15.23;9.30;;;29.00;58.80;;;;;;1916393;73;21180;-70
2022/01/06 05:25:55;;;;;;;12.95;9.65;;;29.10;58.80;;;;;;1889025;74;21096;-70
2022/01/06 05:28:26;;;;;;;12.25;8.70;;;29.20;58.70;;;;;;1935593;73;21197;-71
2022/01/06 05:30:57;;;;;;;11.80;8.10;;;29.20;57.50;;;;;;1909529;74;21123;-71
2022/01/06 05:33:28;;;;;;;13.65;8.43;;;29.30;57.00;;;;;;1911523;74;21161;-71
2022/01/06 05:35:59;;;;;;;12.37;8.45;;;29.30;56.60;;;;;;1882458;75;21248;-71
2022/01/06 05:38:30;;;;;;;13.40;8.53;;;29.40;56.50;;;;;;1936837;73;21188;-71
2022/01/06 05:41:00;;;;;;;11.48;8.20;;;29.40;56.70;;;;;;1916374;73;21543;-71
2022/01/06 05:43:30;;;;;;;9.95;7.70;;;;;;;;;;1928123;74;21203;-71
2022/01/06 05:46:02;;;;;;;11.35;7.90;;;29.50;55.60;;;;;;1930684;73;21235;-72
2022/01/06 05:48:33;;;;;;;13.25;8.60;;;29.60;55.40;;;;;;1924106;73;21215;-72
2022/01/06 05:51:04;;;;;;;11.65;8.98;;;29.70;56.10;;;;;;1904548;73;21452;-71
2022/01/06 05:53:36;;;;;;;16.65;8.78;;;29.80;55.10;;;;;;1860013;75;21205;-71
2022/01/06 05:56:09;;;;;;;15.78;10.35;;;29.80;54.90;;;;;;1853618;75;21181;-71
2022/01/06 05:58:40;;;;;;;11.88;8.78;;;29.80;54.80;;;;;;1915538;73;21649;-71
2022/01/06 06:01:11;;;;;;;14.95;10.15;;;29.80;54.80;;;;;;1908644;73;21102;-71
2022/01/06 06:03:42;;;;;;;11.38;9.08;;;29.80;54.40;;;;;;1901488;73;21146;-72
2022/01/06 06:06:13;;;;;;;14.13;8.88;;;29.90;54.40;;;;;;1912430;73;21677;-72
2022/01/06 06:08:44;;;;;;;12.75;8.60;;;29.90;54.30;;;;;;1929230;72;21194;-72
2022/01/06 06:11:15;;;;;;;13.60;9.10;;;29.90;54.10;;;;;;1901639;73;21182;-70
2022/01/06 06:13:51;;;;;;;14.00;8.25;;;29.90;54.50;;;;;;1899490;74;21657;-71
2022/01/06 06:16:22;;;;;;;17.73;8.70;;;29.90;54.60;;;;;;1927228;73;21150;-71
2022/01/06 06:18:53;;;;;;;15.98;9.85;;;29.90;54.30;;;;;;1935746;73;21177;-71
2022/01/06 06:21:24;;;;;;;11.30;8.55;;;29.90;53.90;;;;;;1925191;72;21099;-71
2022/01/06 06:23:54;;;;;;;16.32;9.85;;;29.90;53.80;;;;;;1916872;72;21118;-72
2022/01/06 06:26:25;;;;;;;10.43;8.70;;;30.00;54.30;;;;;;1922298;73;21216;-70
2022/01/06 06:28:56;;;;;;;13.13;8.80;;;30.10;54.70;;;;;;1933740;72;21185;-72
2022/01/06 06:31:27;;;;;;;14.65;8.93;;;30.20;53.50;;;;;;1915352;73;21533;-72
2022/01/06 06:33:57;;;;;;;12.65;8.15;;;30.30;53.10;;;;;;1896307;73;21512;-73
2022/01/06 06:36:28;;;;;;;13.22;8.88;;;30.20;52.60;;;;;;1916322;73;21127;-73
2022/01/06 06:38:59;;;;;;;14.75;9.25;;;30.30;52.80;;;;;;1926959;73;21176;-72
2022/01/06 06:41:30;;;;;;;14.10;9.60;;;30.30;52.80;;;;;;1934459;73;21588;-71
2022/01/06 06:44:01;;;;;;;19.98;11.48;;;30.30;54.00;;;;;;1940418;73;21132;-71
2022/01/06 06:46:32;;;;;;;13.80;9.73;;;30.20;52.90;;;;;;1940370;73;21154;-71
2022/01/06 06:49:03;;;;;;;14.73;9.10;;;30.30;52.30;;;;;;1927921;73;21108;-71
2022/01/06 06:51:34;;;;;;;11.35;9.00;;;30.20;53.00;;;;;;1884461;73;21206;-71
2022/01/06 06:54:07;;;;;;;10.85;8.60;;;30.20;52.80;;;;;;1887966;73;21207;-70
2022/01/06 06:56:37;;;;;;;14.10;9.90;;;30.20;52.90;;;;;;1917606;74;21606;-71
2022/01/06 06:59:08;;;;;;;12.88;8.95;;;30.20;52.50;;;;;;1908849;74;21100;-71
2022/01/06 07:01:39;;;;;;;15.70;8.30;;;30.20;52.10;;;;;;1902318;74;21268;-72
2022/01/06 07:04:10;;;;;;;10.25;7.97;;;30.10;52.50;;;;;;1919172;73;21656;-71
2022/01/06 07:06:42;;;;;;;15.50;8.85;;;30.10;52.80;;;;;;1920779;73;21179;-72
2022/01/06 07:09:13;;;;;;;16.25;8.35;;;30.20;52.20;;;;;;1918215;73;21979;-71
2022/01/06 07:11:43;;;;;;;11.90;8.23;;;30.20;52.50;;;;;;1927719;73;21091;-72
2022/01/06 07:14:14;;;;;;;12.68;7.40;;;30.20;53.10;;;;;;1923209;73;21194;-72
2022/01/06 07:16:44;;;;;;;14.75;7.55;;;30.30;51.20;;;;;;1928803;73;21096;-72
2022/01/06 07:19:15;;;;;;;11.60;7.50;;;30.20;51.70;;;;;;1930692;73;21233;-73
2022/01/06 07:21:46;;;;;;;11.65;7.60;;;30.30;52.70;;;;;;1911135;73;21177;-73
2022/01/06 07:24:18;;;;;;;13.88;8.55;;;30.40;52.20;;;;;;1939931;73;21163;-73
2022/01/06 07:26:49;;;;;;;11.25;7.58;;;30.40;51.80;;;;;;1917963;74;21072;-72
2022/01/06 07:29:20;;;;;;;13.88;9.23;;;30.40;51.60;;;;;;1932096;73;21151;-72
2022/01/06 07:31:50;;;;;;;9.13;7.20;;;30.40;50.70;;;;;;1932225;73;21174;-72
2022/01/06 07:34:22;;;;;;;10.58;7.60;;;30.40;50.50;;;;;;1903264;74;21208;-72
2022/01/06 07:36:52;;;;;;;13.10;7.80;;;30.40;50.30;;;;;;1914917;73;21052;-72
2022/01/06 07:39:23;;;;;;;12.25;7.75;;;30.40;50.50;;;;;;1929362;73;21596;-73
2022/01/06 07:41:54;;;;;;;11.75;7.78;;;30.50;49.50;;;;;;1938223;72;21676;-72
2022/01/06 07:44:25;;;;;;;10.03;7.70;;;30.50;49.30;;;;;;1929172;73;21078;-72
2022/01/06 07:46:56;;;;;;;12.78;7.90;;;30.40;50.00;;;;;;1923597;73;21091;-73
2022/01/06 07:49:27;;;;;;;13.78;8.00;;;30.50;49.40;;;;;;1912765;73;21761;-73
2022/01/06 07:51:58;;;;;;;10.65;7.72;;;30.60;49.40;;;;;;1894754;74;21096;-74
2022/01/06 07:54:28;;;;;;;10.45;6.92;;;30.60;49.50;;;;;;1934652;72;21821;-75
2022/01/06 07:56:59;;;;;;;13.18;7.35;;;30.50;48.70;;;;;;1921496;73;21123;-75
2022/01/06 07:59:32;;;;;;;15.08;9.15;;;30.50;49.10;;;;;;1939469;73;21221;-72
2022/01/06 08:02:04;;;;;;;11.05;8.05;;;30.50;49.80;;;;;;1919062;72;21542;-72
2022/01/06 08:04:35;;;;;;;12.20;7.62;;;30.50;50.30;;;;;;1911787;73;21133;-72
2022/01/06 08:07:08;;;;;;;11.95;7.10;;;30.50;50.20;;;;;;1914517;73;21083;-74
2022/01/06 08:09:43;;;;;;;10.25;7.22;;;30.40;49.50;;;;;;1915379;73;21229;-73
2022/01/06 08:12:11;;;;;;;11.20;7.00;;;30.40;49.40;;;;;;1905608;74;21127;-73
2022/01/06 08:14:42;;;;;;;11.95;7.53;;;30.30;49.20;;;;;;1897703;74;21155;-72
2022/01/06 08:17:13;;;;;;;11.83;7.70;;;30.30;49.60;;;;;;1912321;73;21190;-73
2022/01/06 08:19:44;;;;;;;10.80;7.25;;;30.30;50.20;;;;;;1916125;73;21081;-72
2022/01/06 08:22:15;;;;;;;15.28;7.62;;;30.30;49.20;;;;;;1933357;73;21687;-72
2022/01/06 08:24:46;;;;;;;10.32;7.20;;;30.30;49.40;;;;;;1927609;73;21110;-72
2022/01/06 08:27:17;;;;;;;12.55;7.90;;;30.30;49.70;;;;;;1912222;73;21255;-72
2022/01/06 08:29:47;;;;;;;14.13;8.10;;;30.40;49.50;;;;;;1897634;75;21106;-72
2022/01/06 08:32:18;;;;;;;11.93;7.70;;;30.30;49.40;;;;;;1912639;73;21127;-73
2022/01/06 08:34:49;;;;;;;8.63;7.28;;;30.30;49.40;;;;;;1913436;73;21211;-72
2022/01/06 08:37:20;;;;;;;8.90;6.72;;;30.20;49.90;;;;;;1911705;73;21820;-73
2022/01/06 08:39:51;;;;;;;12.73;7.40;;;30.20;49.80;;;;;;1906526;73;21653;-73
2022/01/06 08:42:22;;;;;;;11.33;7.00;;;30.20;50.20;;;;;;1926385;73;21118;-72
2022/01/06 08:44:53;;;;;;;11.38;7.03;;;30.10;50.20;;;;;;1919859;73;21778;-72
2022/01/06 08:47:24;;;;;;;12.28;6.95;;;30.10;50.00;;;;;;1912939;73;21663;-72
2022/01/06 08:49:55;;;;;;;12.03;7.67;;;30.10;49.90;;;;;;1913502;73;21068;-73
2022/01/06 08:52:27;;;;;;;10.08;6.92;;;30.10;49.30;;;;;;1934886;73;21250;-72
2022/01/06 08:54:57;;;;;;;8.65;6.83;;;30.00;49.30;;;;;;1869684;75;21143;-72
2022/01/06 08:57:28;;;;;;;13.00;7.58;;;30.00;49.40;;;;;;1934174;73;21174;-73
2022/01/06 09:00:00;;;;;;;8.73;6.33;;;30.00;49.90;;;;;;1912093;73;21158;-73
2022/01/06 09:02:30;;;;;;;10.10;6.78;;;30.00;49.80;;;;;;1934982;73;21620;-72
2022/01/06 09:05:05;;;;;;;11.12;7.45;;;30.00;50.00;;;;;;1929922;73;21179;-72
2022/01/06 09:07:35;;;;;;;10.63;6.47;;;30.00;50.00;;;;;;1907140;73;21198;-72
2022/01/06 09:10:06;;;;;;;14.03;7.12;;;30.00;50.10;;;;;;1919098;73;21587;-71
2022/01/06 09:12:37;;;;;;;9.15;7.08;;;30.00;50.10;;;;;;1924302;73;21170;-71
2022/01/06 09:15:11;;;;;;;10.48;6.95;;;30.00;50.80;;;;;;1905778;73;21678;-71
2022/01/06 09:17:42;;;;;;;10.03;7.12;;;30.00;50.30;;;;;;1905151;73;21221;-71
2022/01/06 09:20:13;;;;;;;10.55;7.08;;;30.00;50.30;;;;;;1905377;73;21275;-71
2022/01/06 09:22:45;;;;;;;10.13;5.97;;;29.90;50.80;;;;;;1900562;73;21159;-71
2022/01/06 09:25:17;;;;;;;9.53;7.78;;;29.90;50.10;;;;;;1919121;73;21497;-69
2022/01/06 09:27:48;;;;;;;9.20;6.70;;;29.90;50.60;;;;;;1934821;73;21545;-70
2022/01/06 09:30:23;;;;;;;9.08;6.08;;;29.90;50.50;;;;;;1929044;74;21094;-70
2022/01/06 09:32:51;;;;;;;11.20;6.62;;;29.90;50.20;;;;;;1898068;73;21526;-70
2022/01/06 09:35:23;;;;;;;10.28;7.42;;;29.90;49.90;;;;;;1937164;73;21085;-69
2022/01/06 09:37:54;;;;;;;10.75;7.25;;;29.80;49.80;;;;;;1935772;73;21154;-70
2022/01/06 09:40:25;;;;;;;12.95;7.53;;;29.80;50.40;;;;;;1922282;73;21638;-70
2022/01/06 09:42:56;;;;;;;10.53;6.85;;;29.80;50.70;;;;;;1902297;73;21617;-70
2022/01/06 09:45:28;;;;;;;9.98;7.45;;;29.80;50.30;;;;;;1922851;73;21116;-70
2022/01/06 09:47:59;;;;;;;9.85;7.00;;;29.80;50.50;;;;;;1872357;75;21079;-70
2022/01/06 09:50:30;;;;;;;14.55;8.15;;;29.80;50.00;;;;;;1923170;73;21590;-70
2022/01/06 09:53:01;;;;;;;10.53;7.58;;;29.80;50.30;;;;;;1910471;73;21137;-71
2022/01/06 09:55:32;;;;;;;10.00;7.62;;;29.80;50.30;;;;;;1917682;73;21265;-70
2022/01/06 09:58:03;;;;;;;13.30;8.80;;;29.70;50.40;;;;;;1937070;73;21212;-71
2022/01/06 10:00:36;;;;;;;11.43;6.83;;;29.70;50.60;;;;;;1883840;75;22565;-76
2022/01/06 10:03:08;;;;;;;11.03;7.20;;;29.60;50.00;;;;;;1909230;73;21126;-72
2022/01/06 10:05:42;;;;;;;10.98;6.40;;;29.50;50.30;;;;;;1878326;75;21180;-70
2022/01/06 10:08:15;;;;;;;12.30;6.40;;;29.50;49.50;;;;;;1930011;73;21086;-71
2022/01/06 10:10:46;;;;;;;12.30;7.90;;;29.50;49.70;;;;;;1916172;73;21073;-71
2022/01/06 10:13:19;;;;;;;10.68;6.20;;;29.40;49.90;;;;;;1923415;73;21590;-70
2022/01/06 10:15:49;;;;;;;10.68;6.47;;;29.40;50.00;;;;;;1927582;73;21084;-70
2022/01/06 10:18:20;;;;;;;10.28;6.47;;;29.30;49.70;;;;;;1930461;73;21760;-70
2022/01/06 10:20:52;;;;;;;9.25;6.67;;;29.30;49.80;;;;;;1912935;74;21536;-71
2022/01/06 10:23:27;;;;;;;7.53;6.00;;;29.20;50.40;;;;;;1881195;75;21123;-70
2022/01/06 10:25:57;;;;;;;9.75;5.85;;;29.20;49.90;;;;;;1945837;73;21619;-71
2022/01/06 10:28:29;;;;;;;10.23;6.25;;;29.20;49.90;;;;;;1905649;73;21222;-72
2022/01/06 10:31:01;;;;;;;11.05;5.97;;;29.10;49.90;;;;;;1936061;73;21142;-71
2022/01/06 10:33:34;;;;;;;11.08;6.50;;;29.10;50.40;;;;;;1881435;74;21257;-72
2022/01/06 10:36:07;;;;;;;10.65;6.67;;;29.00;50.20;;;;;;1922460;73;21185;-72
2022/01/06 10:38:39;;;;;;;10.45;6.85;;;28.90;50.20;;;;;;1929945;73;21169;-72
2022/01/06 10:41:13;;;;;;;11.00;6.92;;;28.90;50.20;;;;;;1925759;73;21753;-71
2022/01/06 10:43:46;;;;;;;11.35;7.22;;;28.90;49.90;;;;;;1908939;73;21138;-71
2022/01/06 10:46:20;;;;;;;13.30;6.62;;;28.80;50.20;;;;;;1919368;73;21188;-73
2022/01/06 10:48:53;;;;;;;13.45;8.50;;;28.80;50.40;;;;;;1913109;73;21134;-71
2022/01/06 10:51:27;;;;;;;12.93;9.00;;;28.80;50.50;;;;;;1933067;73;21099;-72
2022/01/06 10:53:57;;;;;;;13.78;8.50;;;28.80;50.80;;;;;;1888426;75;21614;-71
2022/01/06 10:56:28;;;;;;;13.65;8.80;;;28.70;51.00;;;;;;1887807;74;21440;-71
2022/01/06 10:59:00;;;;;;;14.53;9.38;;;28.70;51.30;;;;;;1902533;75;21099;-71
2022/01/06 11:01:33;;;;;;;15.28;9.00;;;28.70;51.40;;;;;;1889781;75;21096;-71
2022/01/06 11:04:05;;;;;;;21.10;10.03;;;28.60;51.60;;;;;;1911559;74;21142;-72
2022/01/06 11:06:37;;;;;;;20.17;10.48;;;28.60;51.70;;;;;;1906438;74;21143;-72
2022/01/06 11:09:10;;;;;;;26.82;10.85;;;28.60;52.00;;;;;;1904990;74;21576;-72
2022/01/06 11:14:17;;;;;;;15.50;8.65;;;28.40;52.20;;;;;;1927098;73;21542;-70
2022/01/06 11:16:47;;;;;;;20.35;8.83;;;28.40;52.20;;;;;;1910141;74;21535;-72
2022/01/06 11:19:20;;;;;;;18.98;9.65;;;28.40;52.60;;;;;;1920924;73;21516;-71
2022/01/06 11:21:52;;;;;;;17.30;9.45;;;28.30;52.90;;;;;;1904776;73;21272;-72
2022/01/06 11:24:27;;;;;;;18.65;10.40;;;28.20;53.10;;;;;;1920016;73;21135;-72
2022/01/06 11:27:00;;;;;;;21.12;11.93;;;28.20;53.60;;;;;;1928155;73;21141;-82
2022/01/06 11:29:38;;;;;;;25.35;11.08;;;28.10;54.00;;;;;;1934704;74;21099;-82
2022/01/06 11:32:16;;;;;;;19.52;11.28;;;28.10;54.30;;;;;;1900969;74;21140;-82
2022/01/06 11:34:48;;;;;;;16.77;10.50;;;28.10;54.50;;;;;;1886730;75;21244;-83
2022/01/06 11:37:19;;;;;;;24.60;11.73;;;28.10;54.80;;;;;;1923255;73;21226;-83
2022/01/06 11:39:52;;;;;;;24.18;12.18;;;28.00;55.00;;;;;;1926031;73;21080;-83
2022/01/06 11:42:28;;;;;;;21.77;12.77;;;28.00;55.10;;;;;;1935147;73;21087;-84
2022/01/06 11:44:59;;;;;;;21.68;12.37;;;28.00;55.30;;;;;;1932667;73;21895;-81
2022/01/06 11:47:37;;;;;;;23.80;12.05;;;27.90;55.50;;;;;;1931326;73;21138;-82
2022/01/06 11:50:11;;;;;;;23.77;12.28;;;27.90;55.70;;;;;;1920112;73;21087;-82
2022/01/06 11:52:45;;;;;;;17.57;11.78;;;27.90;55.80;;;;;;1905958;72;21084;-82
2022/01/06 11:55:17;;;;;;;23.10;12.58;;;27.90;55.90;;;;;;1913835;73;21217;-81
2022/01/06 11:57:48;;;;;;;20.02;12.28;;;27.80;56.00;;;;;;1922935;73;21683;-81
2022/01/06 12:00:21;;;;;;;22.95;12.00;;;27.80;56.00;;;;;;1925850;73;21193;-84
2022/01/06 12:02:56;;;;;;;22.02;12.63;;;27.80;56.20;;;;;;1867849;74;21532;-81
2022/01/06 12:05:28;;;;;;;22.70;11.93;;;27.70;56.40;;;;;;1912972;73;21524;-80
2022/01/06 12:07:59;;;;;;;24.72;13.90;;;27.60;56.60;;;;;;1870343;74;21228;-81
2022/01/06 12:10:35;;;;;;;26.40;13.22;;;27.50;56.60;;;;;;1901778;73;21162;-82
2022/01/06 12:13:07;;;;;;;27.02;13.68;;;27.50;56.70;;;;;;1924552;73;21153;-81
2022/01/06 12:15:40;;;;;;;21.25;13.50;;;27.40;57.00;;;;;;1913669;73;21141;-81
2022/01/06 12:18:10;;;;;;;29.92;14.07;;;27.40;57.00;;;;;;1914396;73;21224;-81
2022/01/06 12:20:42;;;;;;;27.00;13.70;;;27.30;57.50;;;;;;1926991;73;21151;-81
2022/01/06 12:23:13;;;;;;;27.52;13.15;;;27.30;57.70;;;;;;1913747;73;21125;-81
2022/01/06 12:25:46;;;;;;;32.03;15.50;;;27.20;57.70;;;;;;1917212;73;21170;-81
2022/01/06 12:28:17;;;;;;;24.67;15.40;;;27.20;57.80;;;;;;1924043;73;21675;-81
2022/01/06 12:30:48;;;;;;;31.25;15.68;;;27.10;57.90;;;;;;1915949;73;21174;-81
2022/01/06 12:33:21;;;;;;;25.95;14.30;;;27.10;58.10;;;;;;1921512;73;21169;-80
2022/01/06 12:35:55;;;;;;;31.80;17.77;;;27.10;58.30;;;;;;1866240;75;21139;-82
2022/01/06 12:38:31;;;;;;;28.42;16.62;;;27.00;58.30;;;;;;1877600;75;21476;-81
2022/01/06 12:41:03;;;;;;;28.90;16.15;;;27.00;58.30;;;;;;1905991;74;21193;-81
2022/01/06 12:43:38;;;;;;;30.70;17.37;;;27.00;58.80;;;;;;1922170;73;21143;-81
2022/01/06 12:46:11;;;;;;;27.98;17.48;;;27.00;59.10;;;;;;1927585;73;21248;-81
2022/01/06 12:48:51;;;;;;;26.52;18.05;;;26.90;58.40;;;;;;1891587;75;21167;-82
2022/01/06 12:51:40;;;;;;;;;;;26.90;58.90;;;;;;1918525;73;21116;-80
2022/01/06 12:54:24;;;;;;;32.17;20.15;;;26.90;58.00;;;;;;1907556;73;20226;-81
2022/01/06 12:57:02;;;;;;;34.95;23.38;;;26.90;57.70;;;;;;1923744;73;21081;-81
2022/01/06 12:59:36;;;;;;;29.87;20.20;;;26.90;57.00;;;;;;1902227;73;21166;-82
2022/01/06 13:02:10;;;;;;;31.23;20.97;;;26.90;57.00;;;;;;1879651;75;21158;-81
2022/01/06 13:04:49;;;;;;;31.65;19.50;;;26.90;56.90;;;;;;1875867;75;21095;-83